createdAt,value
2023-04-20T00:01:21.030Z,8.50
2023-04-20T00:03:48.265Z,8.50
2023-04-20T00:06:15.572Z,8.50
2023-04-20T00:08:44.070Z,8.40
2023-04-20T00:11:11.030Z,8.40
2023-04-20T00:13:37.977Z,8.50
2023-04-20T00:16:05.304Z,8.40
2023-04-20T00:18:32.208Z,8.40
2023-04-20T00:20:59.164Z,8.40
2023-04-20T00:23:26.330Z,8.40
2023-04-20T00:25:54.532Z,8.40
2023-04-20T00:28:21.562Z,8.40
2023-04-20T00:30:49.288Z,8.50
2023-04-20T00:33:16.222Z,8.50
2023-04-20T00:35:43.085Z,8.40
2023-04-20T00:38:10.025Z,8.50
2023-04-20T00:40:36.967Z,8.50
2023-04-20T00:43:11.218Z,8.50
2023-04-20T00:45:38.279Z,8.50
2023-04-20T00:48:05.977Z,8.50
2023-04-20T00:50:34.215Z,8.50
2023-04-20T00:53:02.596Z,8.50
2023-04-20T00:55:30.807Z,8.60
2023-04-20T00:57:58.431Z,8.50
2023-04-20T01:00:26.905Z,8.50
2023-04-20T01:02:54.284Z,8.50
2023-04-20T01:05:21.717Z,8.50
2023-04-20T01:07:49.191Z,8.50
2023-04-20T01:10:16.251Z,8.50
2023-04-20T01:12:43.637Z,8.40
2023-04-20T01:15:10.819Z,8.40
2023-04-20T01:17:39.722Z,8.30
2023-04-20T01:20:12.534Z,8.30
2023-04-20T01:22:46.264Z,8.20
2023-04-20T01:25:13.287Z,8.20
2023-04-20T01:27:40.316Z,8.20
2023-04-20T01:30:08.452Z,8.10
2023-04-20T01:32:35.836Z,8.00
2023-04-20T01:35:04.404Z,7.90
2023-04-20T01:37:31.386Z,7.90
2023-04-20T01:39:58.632Z,7.90
2023-04-20T01:42:25.813Z,7.90
2023-04-20T01:44:52.686Z,8.00
2023-04-20T01:47:19.696Z,8.00
2023-04-20T01:49:46.721Z,7.90
2023-04-20T01:52:13.678Z,7.80
2023-04-20T01:54:41.212Z,7.70
2023-04-20T01:57:08.159Z,7.70
2023-04-20T01:59:35.254Z,7.80
2023-04-20T02:02:02.329Z,7.70
2023-04-20T02:04:29.337Z,7.80
2023-04-20T02:06:56.181Z,7.80
2023-04-20T02:09:23.152Z,7.80
2023-04-20T02:11:50.037Z,7.80
2023-04-20T02:14:16.897Z,7.70
2023-04-20T02:16:43.815Z,7.70
2023-04-20T02:19:10.837Z,7.60
2023-04-20T02:21:37.969Z,7.50
2023-04-20T02:24:06.361Z,7.50
2023-04-20T02:26:33.223Z,7.50
2023-04-20T02:29:00.164Z,7.50
2023-04-20T02:31:27.125Z,7.50
2023-04-20T02:33:54.091Z,7.40
2023-04-20T02:36:21.007Z,7.40
2023-04-20T02:38:47.933Z,7.40
2023-04-20T02:41:14.810Z,7.40
2023-04-20T02:43:41.705Z,7.40
2023-04-20T02:46:08.706Z,7.40
2023-04-20T02:48:35.654Z,7.30
2023-04-20T02:51:02.650Z,7.30
2023-04-20T02:53:29.675Z,7.30
2023-04-20T02:55:56.631Z,7.30
2023-04-20T02:58:23.485Z,7.30
2023-04-20T03:00:50.484Z,7.20
2023-04-20T03:03:17.810Z,7.20
2023-04-20T03:05:44.937Z,7.20
2023-04-20T03:08:11.907Z,7.20
2023-04-20T03:10:38.909Z,7.20
2023-04-20T03:13:05.992Z,7.30
2023-04-20T03:15:32.879Z,7.30
2023-04-20T03:17:59.846Z,7.30
2023-04-20T03:20:27.427Z,7.20
2023-04-20T03:22:54.320Z,7.20
2023-04-20T03:25:21.432Z,7.30
2023-04-20T03:27:48.516Z,7.30
2023-04-20T03:30:16.252Z,7.30
2023-04-20T03:32:43.168Z,7.30
2023-04-20T03:35:10.298Z,7.30
2023-04-20T03:37:38.015Z,7.30
2023-04-20T03:40:07.117Z,7.30
2023-04-20T03:42:34.086Z,7.40
2023-04-20T03:45:01.076Z,7.40
2023-04-20T03:47:27.992Z,7.40
2023-04-20T03:49:54.907Z,7.40
2023-04-20T03:52:21.822Z,7.40
2023-04-20T03:54:48.693Z,7.50
2023-04-20T03:57:15.643Z,7.50
2023-04-20T03:59:42.484Z,7.50
2023-04-20T04:02:10.971Z,7.50
2023-04-20T04:04:38.085Z,7.40
2023-04-20T04:07:05.355Z,7.50
2023-04-20T04:09:32.197Z,7.50
2023-04-20T04:11:59.114Z,7.50
2023-04-20T04:14:26.083Z,7.50
2023-04-20T04:16:52.944Z,7.60
2023-04-20T04:19:20.079Z,7.60
2023-04-20T04:21:47.074Z,7.60
2023-04-20T04:24:14.221Z,7.60
2023-04-20T04:26:41.218Z,7.60
2023-04-20T04:29:09.042Z,7.60
2023-04-20T04:31:36.106Z,7.60
2023-04-20T04:34:03.680Z,7.70
2023-04-20T04:36:30.650Z,7.60
2023-04-20T04:38:57.566Z,7.60
2023-04-20T04:41:24.413Z,7.60
2023-04-20T04:43:51.277Z,7.60
2023-04-20T04:46:18.340Z,7.70
2023-04-20T04:48:46.611Z,7.60
2023-04-20T04:51:13.584Z,7.60
2023-04-20T04:53:45.020Z,7.60
2023-04-20T04:56:14.359Z,7.60
2023-04-20T04:58:41.239Z,7.60
2023-04-20T05:01:08.129Z,7.60
2023-04-20T05:03:35.050Z,7.70
2023-04-20T05:06:01.932Z,7.70
2023-04-20T05:08:28.880Z,7.70
2023-04-20T05:10:57.016Z,7.70
2023-04-20T05:13:23.968Z,7.80
2023-04-20T05:15:50.814Z,7.90
2023-04-20T05:18:17.860Z,7.90
2023-04-20T05:20:44.742Z,7.90
2023-04-20T05:23:12.115Z,7.90
2023-04-20T05:25:39.143Z,7.90
2023-04-20T05:28:06.221Z,7.90
2023-04-20T05:30:33.184Z,8.00
2023-04-20T05:33:00.080Z,8.00
2023-04-20T05:35:27.219Z,8.00
2023-04-20T05:37:54.106Z,8.00
2023-04-20T05:40:21.135Z,7.90
2023-04-20T05:42:48.017Z,8.00
2023-04-20T05:45:14.998Z,8.10
2023-04-20T05:47:41.980Z,8.20
2023-04-20T05:50:10.555Z,8.30
2023-04-20T05:52:37.524Z,8.30
2023-04-20T05:55:04.670Z,8.30
2023-04-20T05:57:31.549Z,8.30
2023-04-20T05:59:58.517Z,8.30
2023-04-20T06:02:25.548Z,8.30
2023-04-20T06:04:52.718Z,8.20
2023-04-20T06:07:19.698Z,8.30
2023-04-20T06:09:46.541Z,8.40
2023-04-20T06:12:13.454Z,8.50
2023-04-20T06:14:40.532Z,8.50
2023-04-20T06:17:07.430Z,8.60
2023-04-20T06:19:34.304Z,8.60
2023-04-20T06:22:05.362Z,8.50
2023-04-20T06:24:32.251Z,8.50
2023-04-20T06:26:59.139Z,8.40
2023-04-20T06:29:26.223Z,8.50
2023-04-20T06:31:53.366Z,8.60
2023-04-20T06:34:20.554Z,8.70
2023-04-20T06:36:47.518Z,8.80
2023-04-20T06:39:17.474Z,8.70
2023-04-20T06:41:44.635Z,8.60
2023-04-20T06:44:11.594Z,8.50
2023-04-20T06:46:38.609Z,8.50
2023-04-20T06:49:05.561Z,8.50
2023-04-20T06:51:32.851Z,8.50
2023-04-20T06:53:59.769Z,8.50
2023-04-20T06:56:26.607Z,8.40
2023-04-20T06:58:54.101Z,8.40
2023-04-20T07:01:21.869Z,8.40
2023-04-20T07:03:48.996Z,8.50
2023-04-20T07:09:16.366Z,8.60
2023-04-20T07:11:43.539Z,8.60
2023-04-20T07:14:10.496Z,8.70
2023-04-20T07:16:37.547Z,8.70
2023-04-20T07:19:04.481Z,8.90
2023-04-20T07:21:31.749Z,8.70
2023-04-20T07:23:59.176Z,8.70
2023-04-20T07:26:26.166Z,8.70
2023-04-20T07:28:53.154Z,8.70
2023-04-20T07:31:20.255Z,8.80
2023-04-20T07:33:47.153Z,8.70
2023-04-20T07:36:14.041Z,8.70
2023-04-20T07:38:41.024Z,8.70
2023-04-20T07:41:11.677Z,8.50
2023-04-20T07:43:39.161Z,8.60
2023-04-20T07:46:06.232Z,8.70
2023-04-20T07:48:36.229Z,8.60
2023-04-20T07:51:05.570Z,8.60
2023-04-20T07:53:32.546Z,8.60
2023-04-20T07:55:59.465Z,8.60
2023-04-20T07:58:26.409Z,8.50
2023-04-20T08:00:53.273Z,8.50
2023-04-20T08:03:20.703Z,8.50
2023-04-20T08:05:47.913Z,8.40
2023-04-20T08:08:14.849Z,8.50
2023-04-20T08:10:41.813Z,8.50
2023-04-20T08:13:08.800Z,8.50
2023-04-20T08:15:35.857Z,8.40
2023-04-20T08:18:02.805Z,8.40
2023-04-20T08:20:29.778Z,8.40
2023-04-20T08:22:56.622Z,8.40
2023-04-20T08:25:25.247Z,8.40
2023-04-20T08:27:52.928Z,8.40
2023-04-20T08:30:19.928Z,8.40
2023-04-20T08:32:46.918Z,8.30
2023-04-20T08:35:13.951Z,8.30
2023-04-20T08:37:42.838Z,8.30
2023-04-20T08:40:11.167Z,8.30
2023-04-20T08:42:38.087Z,8.20
2023-04-20T08:45:05.318Z,8.20
2023-04-20T08:47:34.412Z,8.20
2023-04-20T08:50:03.822Z,8.20
2023-04-20T08:52:31.326Z,8.20
2023-04-20T08:54:58.222Z,8.20
2023-04-20T08:57:26.106Z,8.30
2023-04-20T08:59:53.519Z,8.20
2023-04-20T09:02:20.781Z,8.30
2023-04-20T09:04:49.627Z,8.30
2023-04-20T09:07:21.444Z,8.20
2023-04-20T09:09:56.329Z,8.20
2023-04-20T09:12:24.683Z,8.30
2023-04-20T09:14:52.938Z,8.30
2023-04-20T09:17:36.082Z,8.40
2023-04-20T09:20:05.083Z,8.50
2023-04-20T09:22:37.275Z,8.50
2023-04-20T09:25:17.645Z,8.60
2023-04-20T09:27:58.991Z,8.70
2023-04-20T09:30:36.548Z,8.80
2023-04-20T09:33:04.531Z,8.80
2023-04-20T09:35:31.620Z,9.20
2023-04-20T09:37:58.501Z,9.40
2023-04-20T09:40:26.520Z,9.60
2023-04-20T09:43:02.143Z,9.60
2023-04-20T09:45:29.340Z,9.60
2023-04-20T09:47:57.384Z,9.60
2023-04-20T09:50:31.837Z,9.60
2023-04-20T09:53:05.593Z,9.60
2023-04-20T09:55:33.003Z,9.60
2023-04-20T09:58:04.272Z,9.70
2023-04-20T10:00:31.246Z,9.80
2023-04-20T10:02:58.275Z,9.80
2023-04-20T10:05:39.672Z,9.90
2023-04-20T10:08:07.054Z,10.20
2023-04-20T10:10:48.713Z,10.50
2023-04-20T10:13:19.319Z,10.90
2023-04-20T10:15:46.440Z,11.40
2023-04-20T10:18:25.469Z,11.80
2023-04-20T10:21:05.614Z,12.00
2023-04-20T10:23:32.501Z,12.40
2023-04-20T10:26:01.008Z,12.70
2023-04-20T10:28:42.958Z,13.00
2023-04-20T10:31:13.722Z,13.50
2023-04-20T10:33:56.361Z,13.60
2023-04-20T10:36:29.609Z,13.60
2023-04-20T10:38:57.490Z,13.10
2023-04-20T10:41:25.000Z,12.90
2023-04-20T10:43:52.118Z,13.00
2023-04-20T10:46:25.518Z,12.80
2023-04-20T10:48:57.377Z,12.80
2023-04-20T10:51:25.371Z,12.90
2023-04-20T10:54:19.197Z,13.10
2023-04-20T10:56:53.263Z,13.50
2023-04-20T10:59:22.310Z,13.70
2023-04-20T11:01:50.711Z,13.90
2023-04-20T11:04:19.202Z,13.90
2023-04-20T11:06:48.609Z,13.80
2023-04-20T11:09:20.068Z,13.50
2023-04-20T11:11:57.654Z,13.70
2023-04-20T11:14:24.492Z,13.40
2023-04-20T11:16:52.891Z,13.00
2023-04-20T11:19:30.542Z,12.80
2023-04-20T11:21:58.079Z,12.80
2023-04-20T11:24:27.569Z,12.80
2023-04-20T11:26:56.150Z,13.00
2023-04-20T11:29:40.074Z,13.10
2023-04-20T11:32:09.549Z,13.10
2023-04-20T11:34:38.663Z,12.80
2023-04-20T11:37:07.340Z,12.90
2023-04-20T11:39:34.698Z,12.80
2023-04-20T11:42:02.098Z,12.70
2023-04-20T11:44:29.199Z,13.00
2023-04-20T11:47:00.044Z,13.60
2023-04-20T11:49:29.344Z,13.80
2023-04-20T11:51:56.273Z,13.90
2023-04-20T11:54:24.150Z,14.20
2023-04-20T11:56:51.733Z,14.50
2023-04-20T11:59:20.466Z,14.60
2023-04-20T12:01:48.158Z,14.40
2023-04-20T12:04:16.278Z,14.20
2023-04-20T12:06:43.975Z,14.40
2023-04-20T12:09:11.279Z,14.10
2023-04-20T12:11:38.236Z,14.10
2023-04-20T12:14:05.272Z,13.70
2023-04-20T12:16:32.505Z,13.30
2023-04-20T12:18:59.523Z,13.50
2023-04-20T12:21:27.402Z,13.60
2023-04-20T12:23:54.408Z,13.50
2023-04-20T12:26:22.624Z,13.70
2023-04-20T12:28:52.408Z,13.50
2023-04-20T12:31:19.498Z,13.70
2023-04-20T12:33:46.447Z,13.70
2023-04-20T12:36:13.295Z,14.00
2023-04-20T12:38:40.379Z,14.30
2023-04-20T12:41:07.415Z,14.80
2023-04-20T12:43:37.035Z,14.50
2023-04-20T12:46:04.028Z,13.70
2023-04-20T12:48:30.977Z,13.00
2023-04-20T12:51:01.461Z,12.90
2023-04-20T12:53:28.582Z,12.80
2023-04-20T12:56:03.124Z,12.50
2023-04-20T12:58:30.135Z,12.00
2023-04-20T13:00:57.426Z,12.00
2023-04-20T13:03:25.007Z,12.10
2023-04-20T13:05:52.114Z,12.30
2023-04-20T13:08:19.958Z,12.60
2023-04-20T13:10:47.042Z,12.90
2023-04-20T13:13:13.978Z,13.20
2023-04-20T13:15:40.912Z,13.40
2023-04-20T13:18:09.709Z,13.80
2023-04-20T13:20:36.910Z,13.80
2023-04-20T13:23:04.531Z,13.90
2023-04-20T13:25:34.878Z,13.90
2023-04-20T13:28:05.624Z,13.80
2023-04-20T13:30:32.744Z,13.80
2023-04-20T13:32:59.770Z,13.80
2023-04-20T13:35:26.919Z,13.90
2023-04-20T13:37:53.820Z,13.50
2023-04-20T13:40:20.950Z,13.50
2023-04-20T13:42:47.847Z,13.30
2023-04-20T13:45:14.766Z,13.50
2023-04-20T13:47:41.910Z,13.60
2023-04-20T13:50:09.341Z,13.60
2023-04-20T13:52:36.542Z,13.60
2023-04-20T13:55:04.397Z,13.40
2023-04-20T13:57:34.030Z,13.40
2023-04-20T14:00:01.645Z,13.30
2023-04-20T14:02:29.558Z,13.50
2023-04-20T14:04:56.819Z,13.50
2023-04-20T14:07:23.853Z,13.40
2023-04-20T14:09:52.729Z,13.50
2023-04-20T14:12:19.786Z,13.10
2023-04-20T14:14:46.783Z,13.20
2023-04-20T14:17:14.431Z,13.30
2023-04-20T14:19:41.337Z,13.40
2023-04-20T14:22:08.189Z,13.30
2023-04-20T14:24:35.073Z,13.40
2023-04-20T14:27:01.991Z,13.50
2023-04-20T14:29:28.892Z,13.30
2023-04-20T14:31:55.849Z,13.30
2023-04-20T14:34:23.161Z,13.50
2023-04-20T14:36:50.046Z,13.50
2023-04-20T14:39:19.803Z,13.30
2023-04-20T14:41:46.712Z,13.40
2023-04-20T14:44:13.586Z,13.40
2023-04-20T14:46:42.435Z,13.30
2023-04-20T14:49:10.559Z,13.30
2023-04-20T14:51:37.514Z,13.30
2023-04-20T14:54:04.503Z,13.30
2023-04-20T14:56:31.452Z,13.40
2023-04-20T14:58:59.553Z,13.40
2023-04-20T15:01:27.576Z,13.40
2023-04-20T15:03:56.066Z,13.40
2023-04-20T15:06:23.225Z,13.40
2023-04-20T15:08:50.448Z,13.50
2023-04-20T15:11:17.411Z,13.60
2023-04-20T15:13:44.366Z,13.50
2023-04-20T15:16:11.516Z,13.50
2023-04-20T15:18:38.626Z,13.50
2023-04-20T15:21:05.898Z,13.50
2023-04-20T15:23:32.808Z,13.30
2023-04-20T15:25:59.875Z,13.30
2023-04-20T15:28:26.787Z,13.20
2023-04-20T15:30:53.658Z,13.00
2023-04-20T15:33:20.761Z,13.00
2023-04-20T15:35:47.602Z,13.10
2023-04-20T15:38:14.478Z,13.10
2023-04-20T15:40:41.538Z,13.20
2023-04-20T15:43:08.477Z,13.00
2023-04-20T15:45:35.701Z,12.80
2023-04-20T15:48:02.762Z,12.80
2023-04-20T15:50:30.052Z,12.70
2023-04-20T15:52:56.966Z,12.60
2023-04-20T15:55:23.987Z,12.70
2023-04-20T15:57:56.833Z,12.70
2023-04-20T16:00:24.482Z,12.70
2023-04-20T16:02:53.694Z,12.50
2023-04-20T16:05:21.785Z,12.40
2023-04-20T16:07:48.722Z,12.40
2023-04-20T16:10:15.590Z,12.50
2023-04-20T16:12:42.490Z,12.50
2023-04-20T16:15:09.680Z,12.50
2023-04-20T16:17:36.546Z,12.40
2023-04-20T16:20:05.055Z,12.20
2023-04-20T16:22:32.167Z,12.20
2023-04-20T16:24:59.071Z,12.30
2023-04-20T16:27:26.772Z,12.30
2023-04-20T16:29:53.771Z,12.20
2023-04-20T16:32:20.980Z,12.30
2023-04-20T16:34:48.011Z,12.30
2023-04-20T16:37:14.925Z,12.20
2023-04-20T16:39:41.981Z,12.10
2023-04-20T16:42:08.918Z,12.10
2023-04-20T16:44:35.875Z,12.10
2023-04-20T16:47:03.017Z,12.10
2023-04-20T16:49:30.775Z,12.00
2023-04-20T16:51:57.673Z,11.80
2023-04-20T16:54:24.627Z,11.90
2023-04-20T16:56:51.463Z,11.90
2023-04-20T16:59:18.558Z,11.80
2023-04-20T17:01:45.969Z,11.70
2023-04-20T17:04:13.254Z,11.70
2023-04-20T17:06:40.224Z,11.60
2023-04-20T17:09:07.294Z,11.60
2023-04-20T17:11:38.804Z,11.50
2023-04-20T17:14:07.150Z,11.60
2023-04-20T17:16:34.176Z,11.50
2023-04-20T17:19:02.290Z,11.40
2023-04-20T17:21:29.225Z,11.40
2023-04-20T17:23:56.652Z,11.30
2023-04-20T17:26:23.598Z,11.20
2023-04-20T17:28:50.586Z,11.10
2023-04-20T17:31:17.454Z,11.10
2023-04-20T17:33:45.046Z,11.00
2023-04-20T17:36:12.094Z,11.10
2023-04-20T17:38:39.020Z,11.00
2023-04-20T17:41:06.055Z,10.90
2023-04-20T17:43:32.949Z,10.80
2023-04-20T17:46:00.754Z,10.80
2023-04-20T17:48:27.828Z,10.80
2023-04-20T17:50:56.804Z,10.80
2023-04-20T17:53:25.103Z,10.60
2023-04-20T17:55:52.043Z,10.50
2023-04-20T17:58:19.033Z,10.40
2023-04-20T18:00:47.525Z,10.40
2023-04-20T18:03:14.979Z,10.40
2023-04-20T18:05:42.477Z,10.30
2023-04-20T18:08:10.332Z,10.20
2023-04-20T18:10:37.685Z,10.10
2023-04-20T18:13:05.189Z,10.20
2023-04-20T18:15:32.150Z,10.00
2023-04-20T18:17:59.233Z,9.90
2023-04-20T18:20:26.183Z,9.80
2023-04-20T18:22:53.195Z,9.70
2023-04-20T18:25:20.251Z,9.70
2023-04-20T18:27:47.226Z,9.70
2023-04-20T18:30:14.849Z,9.60
2023-04-20T18:32:41.979Z,9.60
2023-04-20T18:35:09.394Z,9.40
2023-04-20T18:37:36.456Z,9.40
2023-04-20T18:40:04.597Z,9.40
2023-04-20T18:42:31.496Z,9.30
2023-04-20T18:44:58.418Z,9.30
2023-04-20T18:47:27.099Z,9.20
2023-04-20T18:49:54.725Z,9.10
2023-04-20T18:52:22.763Z,9.10
2023-04-20T18:54:49.751Z,9.10
2023-04-20T18:57:16.692Z,9.00
2023-04-20T18:59:43.620Z,9.00
2023-04-20T19:02:13.482Z,8.90
2023-04-20T19:04:40.876Z,9.00
2023-04-20T19:07:07.769Z,8.80
2023-04-20T19:09:34.741Z,8.80
2023-04-20T19:12:02.219Z,8.80
2023-04-20T19:14:29.230Z,8.80
2023-04-20T19:16:56.102Z,8.70
2023-04-20T19:19:23.222Z,8.60
2023-04-20T19:21:50.378Z,8.60
2023-04-20T19:24:18.129Z,8.50
2023-04-20T19:26:45.778Z,8.50
2023-04-20T19:29:12.837Z,8.50
2023-04-20T19:31:41.998Z,8.50
2023-04-20T19:34:09.118Z,8.50
2023-04-20T19:36:36.009Z,8.50
2023-04-20T19:39:03.437Z,8.60
2023-04-20T19:41:31.151Z,8.60
2023-04-20T19:43:59.525Z,8.60
2023-04-20T19:46:27.132Z,8.60
2023-04-20T19:48:54.169Z,8.50
2023-04-20T19:51:22.348Z,8.50
2023-04-20T19:53:49.276Z,8.50
2023-04-20T19:56:16.304Z,8.50
2023-04-20T19:58:43.178Z,8.40
2023-04-20T20:01:10.564Z,8.30
2023-04-20T20:03:37.600Z,8.30
2023-04-20T20:06:05.232Z,8.30
2023-04-20T20:08:32.487Z,8.30
2023-04-20T20:10:59.497Z,8.30
2023-04-20T20:13:26.570Z,8.30
2023-04-20T20:15:53.670Z,8.30
2023-04-20T20:18:21.081Z,8.20
2023-04-20T20:20:48.388Z,8.20
2023-04-20T20:23:15.401Z,8.20
2023-04-20T20:25:42.363Z,8.20
2023-04-20T20:28:09.482Z,8.20
2023-04-20T20:30:36.463Z,8.20
2023-04-20T20:33:03.868Z,8.20
2023-04-20T20:35:33.134Z,8.20
2023-04-20T20:38:00.218Z,8.10
2023-04-20T20:40:27.259Z,8.10
2023-04-20T20:42:54.370Z,8.10
2023-04-20T20:45:21.964Z,8.20
2023-04-20T20:47:49.036Z,8.10
2023-04-20T20:50:16.563Z,8.20
2023-04-20T20:52:43.473Z,8.10
2023-04-20T20:55:11.013Z,8.10
2023-04-20T20:57:38.261Z,8.10
2023-04-20T21:00:10.541Z,8.10
2023-04-20T21:02:38.061Z,8.10
2023-04-20T21:05:06.099Z,8.10
2023-04-20T21:07:33.166Z,8.10
2023-04-20T21:10:00.270Z,8.20
2023-04-20T21:12:27.255Z,8.10
2023-04-20T21:14:54.415Z,8.00
2023-04-20T21:17:21.422Z,8.00
2023-04-20T21:19:48.424Z,8.10
2023-04-20T21:22:15.502Z,8.00
2023-04-20T21:24:42.387Z,8.00
2023-04-20T21:27:09.339Z,8.00
2023-04-20T21:29:36.208Z,8.00
2023-04-20T21:32:03.298Z,8.00
2023-04-20T21:34:30.574Z,8.00
2023-04-20T21:37:03.706Z,8.00
2023-04-20T21:39:34.095Z,8.00
2023-04-20T21:42:01.630Z,8.10
2023-04-20T21:44:28.648Z,8.10
2023-04-20T21:46:55.713Z,8.10
2023-04-20T21:49:22.851Z,8.10
2023-04-20T21:51:49.849Z,8.10
2023-04-20T21:54:16.907Z,8.10
2023-04-20T21:56:43.903Z,8.10
2023-04-20T21:59:10.897Z,8.00
2023-04-20T22:01:37.930Z,8.00
2023-04-20T22:04:05.135Z,8.10
2023-04-20T22:06:32.741Z,8.00
2023-04-20T22:08:59.697Z,8.10
2023-04-20T22:11:26.876Z,8.00
2023-04-20T22:13:54.011Z,8.10
2023-04-20T22:16:21.934Z,8.10
2023-04-20T22:18:49.146Z,8.00
2023-04-20T22:21:16.217Z,8.00
2023-04-20T22:23:43.179Z,8.10
2023-04-20T22:26:10.160Z,8.10
2023-04-20T22:28:37.117Z,8.10
2023-04-20T22:31:04.141Z,8.10
2023-04-20T22:33:31.239Z,8.10
2023-04-20T22:35:58.253Z,8.10
2023-04-20T22:38:25.315Z,8.00
2023-04-20T22:40:53.170Z,8.00
2023-04-20T22:43:21.413Z,8.10
2023-04-20T22:45:48.316Z,8.10
2023-04-20T22:48:15.226Z,8.10
2023-04-20T22:50:42.118Z,8.10
2023-04-20T22:53:09.076Z,8.00
2023-04-20T22:55:36.026Z,8.00
2023-04-20T22:58:02.896Z,8.00
2023-04-20T23:00:30.023Z,8.00
2023-04-20T23:02:57.063Z,8.00
2023-04-20T23:05:24.412Z,8.00
2023-04-20T23:07:53.797Z,8.10
2023-04-20T23:10:21.097Z,8.10
2023-04-20T23:12:48.912Z,8.10
2023-04-20T23:15:16.110Z,8.10
2023-04-20T23:17:43.227Z,8.10
2023-04-20T23:20:11.112Z,8.10
2023-04-20T23:22:38.112Z,8.10
2023-04-20T23:25:05.432Z,8.10
2023-04-20T23:27:32.304Z,8.10
2023-04-20T23:29:59.232Z,8.10
2023-04-20T23:32:26.143Z,8.10
2023-04-20T23:34:53.079Z,8.10
2023-04-20T23:37:20.001Z,8.10
2023-04-20T23:39:46.888Z,8.10
2023-04-20T23:42:13.790Z,8.00
2023-04-20T23:44:40.784Z,8.10
2023-04-20T23:47:07.655Z,8.10
2023-04-20T23:49:34.573Z,8.00
2023-04-20T23:52:01.429Z,8.00
2023-04-20T23:54:28.652Z,8.10
2023-04-20T23:56:56.221Z,8.10
2023-04-20T23:59:23.209Z,8.10
